createdAt,value
2022-08-14T00:01:15.256Z,100165.34
2022-08-14T00:06:28.860Z,100153.19
2022-08-14T00:11:32.346Z,100146.72
2022-08-14T00:16:41.434Z,100147.69
2022-08-14T00:21:50.042Z,100138.06
2022-08-14T00:26:54.845Z,100130.78
2022-08-14T00:31:57.536Z,100127.28
2022-08-14T00:37:02.777Z,100130.03
2022-08-14T00:42:05.985Z,100119.47
2022-08-14T00:47:10.977Z,100125.75
2022-08-14T00:52:18.288Z,100116.09
2022-08-14T00:57:22.463Z,100115.19
2022-08-14T01:02:27.730Z,100120.66
2022-08-14T01:07:38.638Z,100092.84
2022-08-14T01:12:50.172Z,100085.97
2022-08-14T01:18:23.805Z,100085.09
2022-08-14T01:23:41.643Z,100069.06
2022-08-14T01:28:56.817Z,100067.22
2022-08-14T01:35:18.503Z,100063.63
2022-08-14T01:39:28.909Z,100054.75
2022-08-14T01:44:36.252Z,100047.59
2022-08-14T01:49:46.137Z,100035.09
2022-08-14T01:55:03.175Z,100024.41
2022-08-14T02:00:15.184Z,100026.38
2022-08-14T02:05:21.385Z,100002.31
2022-08-14T02:10:29.088Z,99999.59
2022-08-14T02:15:31.873Z,99988.06
2022-08-14T02:20:35.887Z,99986.16
2022-08-14T02:25:40.233Z,99974.81
2022-08-14T02:30:43.033Z,99980.06
2022-08-14T02:35:53.074Z,99964.13
2022-08-14T02:40:57.776Z,99962.13
2022-08-14T02:46:00.452Z,99963.16
2022-08-14T02:51:07.117Z,99948.06
2022-08-14T02:56:30.940Z,99940.06
2022-08-14T03:01:43.826Z,99923.28
2022-08-14T03:07:06.609Z,99902.78
2022-08-14T03:12:12.494Z,99903.56
2022-08-14T03:17:20.538Z,99893.75
2022-08-14T03:22:25.332Z,99884.88
2022-08-14T03:27:35.327Z,99868.94
2022-08-14T03:32:51.441Z,99859.00
2022-08-14T03:39:13.382Z,99846.38
2022-08-14T03:43:18.494Z,99855.50
2022-08-14T03:48:30.216Z,99850.16
2022-08-14T03:53:35.034Z,99835.00
2022-08-14T03:58:42.061Z,99832.28
2022-08-14T04:03:44.745Z,99827.91
2022-08-14T04:08:51.072Z,99823.50
2022-08-14T04:13:55.321Z,99812.69
2022-08-14T04:18:59.482Z,99805.72
2022-08-14T04:24:06.053Z,99795.91
2022-08-14T04:29:16.170Z,99789.59
2022-08-14T04:34:24.183Z,99789.56
2022-08-14T04:39:48.353Z,99787.78
2022-08-14T04:45:01.598Z,99790.41
2022-08-14T04:50:04.845Z,99781.41
2022-08-14T04:55:08.188Z,99781.53
2022-08-14T05:00:16.250Z,99772.56
2022-08-14T05:05:21.921Z,99777.03
2022-08-14T05:10:26.369Z,99766.16
2022-08-14T05:15:39.376Z,99787.16
2022-08-14T05:21:55.191Z,99784.53
2022-08-14T05:26:13.096Z,99787.16
2022-08-14T05:31:20.600Z,99777.44
2022-08-14T05:36:23.910Z,99778.25
2022-08-14T05:41:40.046Z,99776.28
2022-08-14T05:46:50.824Z,99773.31
2022-08-14T05:51:53.512Z,99789.59
2022-08-14T05:56:56.302Z,99783.16
2022-08-14T06:02:00.314Z,99785.81
2022-08-14T06:07:04.753Z,99776.75
2022-08-14T06:12:08.353Z,99766.13
2022-08-14T06:17:15.697Z,99768.13
2022-08-14T06:22:28.951Z,99769.16
2022-08-14T06:27:36.837Z,99769.72
2022-08-14T06:32:42.236Z,99780.66
2022-08-14T06:37:47.009Z,99776.78
2022-08-14T06:42:50.934Z,99786.75
2022-08-14T06:47:59.221Z,99784.41
2022-08-14T06:53:01.985Z,99771.81
2022-08-14T06:58:05.029Z,99778.75
2022-08-14T07:03:29.922Z,99781.31
2022-08-14T07:08:33.325Z,99784.22
2022-08-14T07:13:36.117Z,99790.25
2022-08-14T07:18:41.527Z,99797.47
2022-08-14T07:23:45.472Z,99798.97
2022-08-14T07:28:48.164Z,99790.38
2022-08-14T07:33:52.309Z,99792.88
2022-08-14T07:38:55.102Z,99801.59
2022-08-14T07:44:00.883Z,99796.59
2022-08-14T07:49:24.506Z,99805.25
2022-08-14T07:54:30.105Z,99805.81
2022-08-14T07:59:42.344Z,99824.09
2022-08-14T08:04:54.270Z,99807.09
2022-08-14T08:09:59.589Z,99817.34
2022-08-14T08:15:07.301Z,99817.13
2022-08-14T08:20:20.078Z,99813.97
2022-08-14T08:25:23.233Z,99815.63
2022-08-14T08:30:27.829Z,99818.81
2022-08-14T08:35:46.262Z,99826.22
2022-08-14T08:40:57.489Z,99817.03
2022-08-14T08:46:04.117Z,99803.44
2022-08-14T08:51:08.273Z,99793.50
2022-08-14T08:56:10.945Z,99795.94
2022-08-14T09:01:32.786Z,99794.28
2022-08-14T09:06:59.995Z,99788.41
2022-08-14T09:12:13.816Z,99789.19
2022-08-14T09:17:16.770Z,99806.50
2022-08-14T09:22:44.539Z,99797.13
2022-08-14T09:27:45.195Z,99808.94
2022-08-14T09:33:00.613Z,99788.75
2022-08-14T09:38:19.389Z,99798.31
2022-08-14T09:43:32.434Z,99787.03
2022-08-14T09:48:35.224Z,99787.81
2022-08-14T09:54:19.035Z,99785.94
2022-08-14T09:59:15.387Z,99800.06
2022-08-14T10:04:34.769Z,99780.81
2022-08-14T10:10:00.040Z,99782.28
2022-08-14T10:15:16.669Z,99763.56
2022-08-14T10:20:40.255Z,99761.41
2022-08-14T10:25:51.181Z,99754.28
2022-08-14T10:30:55.737Z,99759.59
2022-08-14T10:36:00.529Z,99740.94
2022-08-14T10:41:15.813Z,99743.34
2022-08-14T10:47:35.894Z,99746.22
2022-08-14T10:51:42.914Z,99741.47
2022-08-14T10:56:46.928Z,99732.78
2022-08-14T11:01:49.666Z,99712.84
2022-08-14T11:06:54.056Z,99714.81
2022-08-14T11:12:33.283Z,99705.19
2022-08-14T11:17:21.765Z,99694.84
2022-08-14T11:22:56.705Z,99694.97
2022-08-14T11:27:49.139Z,99678.78
2022-08-14T11:32:54.513Z,99685.56
2022-08-14T11:37:59.427Z,99667.06
2022-08-14T11:43:05.484Z,99666.88
2022-08-14T11:49:01.910Z,99644.91
2022-08-14T11:53:43.531Z,99648.66
2022-08-14T11:58:53.974Z,99646.00
2022-08-14T12:03:59.052Z,99662.91
2022-08-14T12:09:03.931Z,99652.72
2022-08-14T12:14:30.926Z,99629.28
2022-08-14T12:19:45.917Z,99628.50
2022-08-14T12:24:54.272Z,99631.22
2022-08-14T12:29:59.878Z,99624.81
2022-08-14T12:35:03.406Z,99613.09
2022-08-14T12:40:11.340Z,99593.69
2022-08-14T12:45:16.763Z,99595.13
2022-08-14T12:50:20.311Z,99614.81
2022-08-14T12:55:23.067Z,99586.41
2022-08-14T13:00:49.565Z,99577.50
2022-08-14T13:06:02.755Z,99559.88
2022-08-14T13:11:07.348Z,99562.00
2022-08-14T13:16:20.515Z,99583.59
2022-08-14T13:21:23.715Z,99556.25
2022-08-14T13:26:28.214Z,99533.38
2022-08-14T13:31:34.510Z,99520.88
2022-08-14T13:36:54.343Z,99517.22
2022-08-14T13:42:04.694Z,99505.22
2022-08-14T13:47:14.561Z,99516.03
2022-08-14T13:52:51.386Z,99498.28
2022-08-14T13:57:49.776Z,99477.41
2022-08-14T14:03:05.514Z,99473.88
2022-08-14T14:08:18.523Z,99456.31
2022-08-14T14:13:32.420Z,99447.47
2022-08-14T14:18:42.581Z,99431.50
2022-08-14T14:23:45.999Z,99431.53
2022-08-14T14:28:50.552Z,99452.22
2022-08-14T14:33:58.359Z,99434.84
2022-08-14T14:39:04.513Z,99421.22
2022-08-14T14:44:09.671Z,99421.47
2022-08-14T14:49:18.698Z,99408.84
2022-08-14T14:54:31.623Z,99415.53
2022-08-14T14:59:40.137Z,99410.25
2022-08-14T15:04:44.311Z,99410.59
2022-08-14T15:09:47.235Z,99407.44
2022-08-14T15:14:55.028Z,99405.31
2022-08-14T15:20:03.637Z,99422.19
2022-08-14T15:25:07.668Z,99404.53
2022-08-14T15:30:12.760Z,99403.91
2022-08-14T15:35:29.704Z,99396.41
2022-08-14T15:40:41.296Z,99391.50
2022-08-14T15:45:44.069Z,99386.13
2022-08-14T15:50:49.141Z,99384.75
2022-08-14T15:55:55.143Z,99394.06
2022-08-14T16:01:26.543Z,99369.94
2022-08-14T16:06:40.493Z,99375.38
2022-08-14T16:11:50.649Z,99371.06
2022-08-14T16:17:00.804Z,99365.84
2022-08-14T16:22:58.122Z,99367.88
2022-08-14T16:27:39.307Z,99363.88
2022-08-14T16:32:55.052Z,99357.59
2022-08-14T16:38:44.977Z,99356.69
2022-08-14T16:43:25.992Z,99349.31
2022-08-14T16:48:55.299Z,99350.91
2022-08-14T16:53:55.196Z,99347.56
2022-08-14T16:59:06.606Z,99331.41
2022-08-14T17:04:14.943Z,99344.91
2022-08-14T17:09:32.610Z,99334.03
2022-08-14T17:15:03.627Z,99341.22
2022-08-14T17:20:39.440Z,99320.78
2022-08-14T17:25:39.212Z,99322.16
2022-08-14T17:30:49.935Z,99331.63
2022-08-14T17:36:10.187Z,99322.59
2022-08-14T17:41:26.992Z,99328.44
2022-08-14T17:46:37.125Z,99329.56
2022-08-14T17:52:07.836Z,99320.22
2022-08-14T17:57:23.124Z,99318.94
2022-08-14T18:02:31.208Z,99322.13
2022-08-14T18:07:59.525Z,99325.28
2022-08-14T18:13:01.679Z,99329.88
2022-08-14T18:18:07.054Z,99334.59
2022-08-14T18:23:13.114Z,99323.16
2022-08-14T18:28:51.945Z,99330.66
2022-08-14T18:33:45.094Z,99319.25
2022-08-14T18:39:00.127Z,99330.09
2022-08-14T18:44:04.853Z,99326.72
2022-08-14T18:49:15.237Z,99331.41
2022-08-14T18:54:33.252Z,99341.16
2022-08-14T18:59:42.270Z,99323.88
2022-08-14T19:04:45.818Z,99319.94
2022-08-14T19:09:53.673Z,99319.66
2022-08-14T19:15:08.376Z,99324.41
2022-08-14T19:20:12.725Z,99330.13
2022-08-14T19:25:48.228Z,99325.03
2022-08-14T19:31:37.142Z,99320.91
2022-08-14T19:37:04.296Z,99346.69
2022-08-14T19:42:10.582Z,99321.09
2022-08-14T19:47:16.622Z,99328.22
2022-08-14T19:52:22.411Z,99331.13
2022-08-14T19:57:29.220Z,99340.56
2022-08-14T20:02:32.077Z,99331.47
2022-08-14T20:07:59.674Z,99335.88
2022-08-14T20:13:05.522Z,99339.72
2022-08-14T20:18:18.314Z,99341.22
2022-08-14T20:23:38.258Z,99335.06
2022-08-14T20:28:51.395Z,99329.28
2022-08-14T20:34:06.139Z,99335.91
2022-08-14T20:39:15.163Z,99327.59
2022-08-14T20:44:38.710Z,99336.91
2022-08-14T20:49:41.441Z,99334.88
2022-08-14T20:54:50.939Z,99320.03
2022-08-14T20:59:57.347Z,99331.97
2022-08-14T21:05:03.664Z,99322.56
2022-08-14T21:10:34.023Z,99326.38
2022-08-14T21:15:32.401Z,99314.16
2022-08-14T21:20:37.759Z,99315.13
2022-08-14T21:25:42.562Z,99337.84
2022-08-14T21:30:51.030Z,99310.22
2022-08-14T21:35:58.212Z,99302.38
2022-08-14T21:41:03.091Z,99306.03
2022-08-14T21:46:25.728Z,99315.28
2022-08-14T21:51:53.362Z,99313.03
2022-08-14T21:56:56.898Z,99315.47
2022-08-14T22:02:02.302Z,99306.53
2022-08-14T22:07:09.147Z,99309.22
2022-08-14T22:12:57.338Z,99305.94
2022-08-14T22:17:37.531Z,99299.56
2022-08-14T22:22:48.465Z,99299.81
2022-08-14T22:27:59.076Z,99293.88
2022-08-14T22:33:04.612Z,99292.03
2022-08-14T22:38:35.813Z,99294.53
2022-08-14T22:43:31.711Z,99282.03
2022-08-14T22:48:34.467Z,99283.75
2022-08-14T22:53:44.811Z,99279.91
2022-08-14T22:58:47.629Z,99271.22
2022-08-14T23:03:53.597Z,99273.78
2022-08-14T23:09:36.512Z,99276.94
2022-08-14T23:14:24.161Z,99294.63
2022-08-14T23:19:33.666Z,99285.44
2022-08-14T23:24:41.585Z,99298.06
2022-08-14T23:29:45.502Z,99308.50
2022-08-14T23:34:51.664Z,99284.47
2022-08-14T23:39:56.107Z,99283.66
2022-08-14T23:44:59.356Z,99305.94
2022-08-14T23:50:07.727Z,99313.22
2022-08-14T23:55:12.063Z,99323.28
